createdAt,value
2022-10-07T00:02:24.393Z,5.77
2022-10-07T00:04:51.095Z,5.87
2022-10-07T00:07:17.739Z,2.63
2022-10-07T00:09:44.379Z,2.43
2022-10-07T00:12:11.597Z,3.83
2022-10-07T00:14:39.554Z,4.33
2022-10-07T00:17:06.231Z,6.80
2022-10-07T00:19:32.994Z,5.17
2022-10-07T00:21:59.796Z,4.80
2022-10-07T00:24:26.785Z,3.90
2022-10-07T00:26:53.572Z,4.77
2022-10-07T00:29:23.906Z,4.30
2022-10-07T00:31:56.959Z,3.23
2022-10-07T00:34:24.690Z,4.67
2022-10-07T00:36:51.490Z,4.57
2022-10-07T00:39:18.777Z,4.80
2022-10-07T00:41:51.748Z,4.70
2022-10-07T00:44:24.496Z,5.53
2022-10-07T00:46:52.200Z,4.37
2022-10-07T00:49:18.784Z,3.30
2022-10-07T00:51:45.372Z,7.17
2022-10-07T00:54:16.170Z,4.37
2022-10-07T00:56:45.067Z,4.53
2022-10-07T00:59:13.218Z,4.63
2022-10-07T01:01:42.067Z,7.13
2022-10-07T01:04:12.109Z,9.03
2022-10-07T01:06:39.234Z,3.23
2022-10-07T01:09:11.382Z,4.47
2022-10-07T01:11:50.989Z,2.00
2022-10-07T01:14:29.506Z,3.20
2022-10-07T01:17:03.846Z,1.70
2022-10-07T01:19:48.500Z,3.40
2022-10-07T01:22:41.336Z,7.83
2022-10-07T01:25:23.633Z,4.90
2022-10-07T01:28:14.990Z,6.17
2022-10-07T01:30:46.849Z,5.27
2022-10-07T01:33:18.995Z,4.17
2022-10-07T01:35:50.719Z,2.73
2022-10-07T01:38:22.185Z,4.97
2022-10-07T01:40:56.552Z,7.67
2022-10-07T01:43:23.574Z,4.13
2022-10-07T01:45:52.398Z,3.40
2022-10-07T01:48:18.963Z,3.83
2022-10-07T01:50:46.206Z,4.60
2022-10-07T01:53:42.315Z,3.73
2022-10-07T01:56:33.679Z,4.00
2022-10-07T01:59:04.645Z,4.23
2022-10-07T02:02:07.068Z,3.47
2022-10-07T02:04:45.063Z,3.53
2022-10-07T02:07:46.150Z,4.57
2022-10-07T02:10:16.047Z,5.73
2022-10-07T02:12:57.318Z,2.50
2022-10-07T02:15:34.571Z,2.57
2022-10-07T02:18:06.230Z,4.87
2022-10-07T02:20:36.153Z,3.53
2022-10-07T02:23:07.738Z,5.10
2022-10-07T02:25:41.600Z,4.77
2022-10-07T02:28:11.515Z,4.27
2022-10-07T02:30:41.306Z,4.33
2022-10-07T02:33:09.804Z,3.83
2022-10-07T02:35:39.702Z,5.10
2022-10-07T02:38:10.894Z,4.53
2022-10-07T02:40:43.917Z,2.27
2022-10-07T02:43:24.922Z,1.77
2022-10-07T02:45:58.601Z,4.83
2022-10-07T02:48:34.409Z,3.30
2022-10-07T02:51:04.856Z,3.60
2022-10-07T02:53:33.077Z,4.37
2022-10-07T02:56:02.720Z,5.53
2022-10-07T02:58:29.822Z,4.10
2022-10-07T03:00:59.337Z,4.07
2022-10-07T03:03:27.067Z,2.27
2022-10-07T03:05:59.246Z,4.43
2022-10-07T03:08:27.566Z,1.63
2022-10-07T03:10:55.129Z,3.90
2022-10-07T03:13:22.313Z,5.43
2022-10-07T03:15:53.049Z,4.37
2022-10-07T03:18:28.591Z,4.80
2022-10-07T03:21:18.117Z,6.40
2022-10-07T03:23:51.034Z,1.60
2022-10-07T03:26:19.255Z,5.03
2022-10-07T03:28:47.151Z,7.63
2022-10-07T03:31:15.516Z,2.27
2022-10-07T03:33:46.861Z,3.77
2022-10-07T03:36:13.706Z,5.07
2022-10-07T03:38:43.079Z,3.63
2022-10-07T03:41:11.156Z,4.10
2022-10-07T03:43:38.206Z,5.30
2022-10-07T03:46:06.635Z,2.83
2022-10-07T03:48:36.043Z,6.50
2022-10-07T03:51:02.711Z,5.77
2022-10-07T03:53:31.384Z,2.50
2022-10-07T03:56:00.489Z,1.30
2022-10-07T03:58:29.433Z,4.00
2022-10-07T04:01:14.977Z,3.40
2022-10-07T04:03:47.467Z,6.03
2022-10-07T04:06:14.490Z,3.67
2022-10-07T04:08:41.482Z,5.63
2022-10-07T04:11:08.857Z,3.50
2022-10-07T04:13:40.408Z,3.80
2022-10-07T04:16:09.039Z,3.27
2022-10-07T04:18:36.839Z,4.37
2022-10-07T04:21:03.578Z,4.23
2022-10-07T04:23:32.437Z,2.40
2022-10-07T04:26:01.298Z,2.77
2022-10-07T04:28:29.003Z,4.47
2022-10-07T04:31:08.626Z,2.73
2022-10-07T04:33:40.550Z,3.67
2022-10-07T04:36:10.358Z,3.37
2022-10-07T04:39:05.925Z,2.57
2022-10-07T04:41:35.995Z,3.13
2022-10-07T04:44:05.719Z,4.13
2022-10-07T04:46:36.934Z,6.27
2022-10-07T04:49:10.978Z,3.53
2022-10-07T04:51:37.878Z,4.10
2022-10-07T04:54:05.049Z,3.93
2022-10-07T04:56:38.307Z,4.17
2022-10-07T04:59:07.663Z,5.07
2022-10-07T05:01:36.367Z,2.00
2022-10-07T05:04:03.110Z,3.10
2022-10-07T05:06:29.947Z,4.53
2022-10-07T05:08:56.617Z,6.37
2022-10-07T05:11:25.821Z,2.80
2022-10-07T05:13:58.493Z,6.13
2022-10-07T05:16:25.987Z,5.20
2022-10-07T05:18:52.524Z,6.23
2022-10-07T05:21:19.107Z,3.77
2022-10-07T05:23:47.671Z,3.73
2022-10-07T05:26:34.596Z,2.23
2022-10-07T05:29:03.537Z,4.90
2022-10-07T05:31:37.158Z,3.77
2022-10-07T05:34:05.373Z,6.13
2022-10-07T05:36:32.998Z,4.53
2022-10-07T05:39:01.025Z,1.67
2022-10-07T05:41:45.796Z,4.80
2022-10-07T05:44:15.686Z,3.93
2022-10-07T05:46:42.831Z,3.20
2022-10-07T05:49:10.386Z,2.97
2022-10-07T05:51:36.910Z,3.17
2022-10-07T05:54:03.668Z,5.17
2022-10-07T05:56:37.035Z,5.17
2022-10-07T05:59:04.360Z,6.07
2022-10-07T06:01:31.467Z,5.33
2022-10-07T06:04:03.190Z,5.77
2022-10-07T06:06:32.626Z,5.37
2022-10-07T06:09:21.466Z,6.00
2022-10-07T06:12:07.300Z,8.40
2022-10-07T06:14:36.038Z,5.43
2022-10-07T06:17:04.761Z,3.77
2022-10-07T06:19:31.686Z,3.87
2022-10-07T06:22:00.961Z,3.90
2022-10-07T06:24:27.572Z,3.33
2022-10-07T06:26:58.713Z,6.73
2022-10-07T06:29:26.314Z,4.43
2022-10-07T06:31:52.957Z,5.73
2022-10-07T06:34:19.491Z,4.37
2022-10-07T06:36:46.450Z,2.00
2022-10-07T06:39:16.181Z,4.23
2022-10-07T06:41:43.458Z,5.67
2022-10-07T06:44:27.338Z,7.53
2022-10-07T06:46:55.302Z,5.20
2022-10-07T06:49:23.249Z,6.90
2022-10-07T06:51:51.326Z,6.27
2022-10-07T06:54:18.398Z,3.20
2022-10-07T06:56:44.923Z,5.43
2022-10-07T06:59:11.430Z,4.80
2022-10-07T07:02:13.162Z,6.10
2022-10-07T07:04:40.814Z,5.47
2022-10-07T07:07:07.510Z,5.37
2022-10-07T07:09:34.022Z,4.87
2022-10-07T07:12:00.992Z,6.60
2022-10-07T07:14:35.697Z,5.03
2022-10-07T07:17:14.040Z,3.40
2022-10-07T07:19:40.865Z,4.20
2022-10-07T07:22:08.159Z,3.93
2022-10-07T07:24:35.180Z,5.27
2022-10-07T07:27:03.000Z,1.90
2022-10-07T07:29:30.530Z,7.63
2022-10-07T07:32:00.020Z,4.30
2022-10-07T07:34:30.209Z,5.23
2022-10-07T07:36:57.262Z,5.07
2022-10-07T07:39:28.713Z,10.27
2022-10-07T07:42:01.871Z,5.03
2022-10-07T07:44:33.977Z,7.53
2022-10-07T07:47:02.245Z,6.87
2022-10-07T07:49:31.873Z,3.40
2022-10-07T07:51:59.092Z,6.67
2022-10-07T07:54:30.549Z,4.63
2022-10-07T07:56:58.200Z,4.33
2022-10-07T07:59:27.951Z,5.03
2022-10-07T08:01:57.048Z,4.97
2022-10-07T08:04:23.969Z,5.93
2022-10-07T08:06:51.756Z,4.00
2022-10-07T08:09:19.271Z,3.90
2022-10-07T08:11:48.012Z,4.00
2022-10-07T08:14:17.266Z,5.47
2022-10-07T08:16:47.294Z,3.90
2022-10-07T08:19:13.884Z,4.07
2022-10-07T08:21:40.672Z,6.13
2022-10-07T08:24:12.435Z,4.10
2022-10-07T08:26:40.027Z,3.70
2022-10-07T08:29:09.851Z,5.03
2022-10-07T08:31:39.315Z,3.10
2022-10-07T08:34:06.430Z,5.70
2022-10-07T08:36:35.956Z,3.20
2022-10-07T08:39:04.579Z,2.47
2022-10-07T08:41:32.810Z,2.67
2022-10-07T08:44:17.337Z,5.33
2022-10-07T08:47:21.790Z,3.83
2022-10-07T08:50:09.760Z,4.77
2022-10-07T08:52:39.235Z,3.80
2022-10-07T08:55:28.246Z,3.57
2022-10-07T08:58:19.704Z,6.07
2022-10-07T09:01:03.263Z,3.43
2022-10-07T09:03:45.474Z,5.30
2022-10-07T09:06:17.938Z,5.73
2022-10-07T09:08:47.988Z,4.20
2022-10-07T09:11:25.495Z,5.83
2022-10-07T09:14:22.286Z,3.10
2022-10-07T09:16:49.978Z,5.40
2022-10-07T09:19:48.381Z,3.87
2022-10-07T09:22:21.450Z,5.77
2022-10-07T09:24:49.634Z,5.90
2022-10-07T09:27:20.091Z,5.10
2022-10-07T09:29:47.233Z,3.10
2022-10-07T09:32:17.390Z,3.87
2022-10-07T09:34:44.624Z,7.57
2022-10-07T09:37:26.013Z,3.43
2022-10-07T09:39:54.971Z,7.20
2022-10-07T09:42:40.011Z,3.63
2022-10-07T09:45:21.258Z,2.50
2022-10-07T09:47:53.030Z,3.77
2022-10-07T09:50:41.042Z,2.90
2022-10-07T09:53:24.935Z,3.57
2022-10-07T09:55:53.608Z,2.33
2022-10-07T09:58:28.479Z,4.10
2022-10-07T10:00:57.737Z,6.33
2022-10-07T10:03:32.783Z,3.33
2022-10-07T10:06:07.711Z,3.33
2022-10-07T10:08:42.047Z,3.47
2022-10-07T10:11:17.676Z,5.90
2022-10-07T10:13:44.245Z,5.30
2022-10-07T10:16:34.383Z,2.83
2022-10-07T10:19:03.107Z,2.63
2022-10-07T10:21:35.657Z,8.87
2022-10-07T10:24:40.533Z,6.23
2022-10-07T10:27:15.379Z,3.40
2022-10-07T10:29:45.828Z,4.13
2022-10-07T10:32:43.438Z,4.47
2022-10-07T10:35:22.149Z,4.47
2022-10-07T10:38:25.647Z,4.47
2022-10-07T10:40:59.061Z,5.03
2022-10-07T10:43:25.469Z,4.40
2022-10-07T10:46:25.984Z,3.67
2022-10-07T10:49:19.712Z,3.03
2022-10-07T10:52:24.805Z,4.20
2022-10-07T10:55:12.848Z,4.37
2022-10-07T10:57:48.008Z,2.97
2022-10-07T11:00:22.866Z,2.53
2022-10-07T11:03:12.531Z,3.63
2022-10-07T11:05:40.708Z,3.30
2022-10-07T11:08:10.440Z,6.37
2022-10-07T11:10:51.533Z,2.87
2022-10-07T11:13:36.891Z,5.80
2022-10-07T11:16:24.838Z,2.13
2022-10-07T11:19:00.823Z,3.50
2022-10-07T11:21:32.592Z,3.03
2022-10-07T11:24:05.069Z,3.53
2022-10-07T11:26:41.217Z,4.97
2022-10-07T11:29:23.431Z,3.13
2022-10-07T11:31:58.157Z,3.57
2022-10-07T11:34:43.888Z,4.00
2022-10-07T11:37:33.565Z,5.47
2022-10-07T11:40:05.155Z,2.77
2022-10-07T11:42:40.276Z,2.43
2022-10-07T11:45:12.066Z,8.37
2022-10-07T11:47:52.683Z,3.70
2022-10-07T11:50:26.663Z,4.97
2022-10-07T11:53:01.365Z,4.93
2022-10-07T11:55:34.742Z,3.23
2022-10-07T11:58:04.124Z,5.90
2022-10-07T12:00:32.360Z,2.97
2022-10-07T12:03:25.539Z,4.47
2022-10-07T12:05:53.299Z,2.73
2022-10-07T12:08:31.997Z,2.47
2022-10-07T12:11:14.458Z,4.27
2022-10-07T12:13:47.342Z,4.70
2022-10-07T12:16:30.202Z,5.20
2022-10-07T12:19:10.454Z,2.70
2022-10-07T12:21:57.127Z,5.10
2022-10-07T12:24:23.583Z,2.67
2022-10-07T12:26:51.058Z,4.07
2022-10-07T12:29:28.740Z,2.03
2022-10-07T12:31:55.768Z,2.23
2022-10-07T12:34:35.736Z,3.27
2022-10-07T12:37:40.827Z,6.93
2022-10-07T12:40:17.403Z,6.17
2022-10-07T12:42:52.150Z,3.37
2022-10-07T12:45:21.822Z,4.17
2022-10-07T12:47:52.726Z,2.27
2022-10-07T12:50:21.637Z,6.73
2022-10-07T12:52:52.927Z,3.93
2022-10-07T12:55:29.431Z,4.13
2022-10-07T12:58:17.372Z,4.33
2022-10-07T13:01:14.685Z,4.57
2022-10-07T13:04:10.945Z,3.17
2022-10-07T13:07:16.966Z,4.90
2022-10-07T13:10:20.471Z,5.93
2022-10-07T13:12:55.726Z,7.63
2022-10-07T13:15:56.779Z,2.87
2022-10-07T13:18:57.208Z,6.40
2022-10-07T13:21:26.718Z,4.70
2022-10-07T13:23:55.199Z,3.37
2022-10-07T13:26:24.102Z,4.60
2022-10-07T13:28:54.570Z,5.57
2022-10-07T13:31:27.157Z,4.47
2022-10-07T13:33:55.157Z,5.57
2022-10-07T13:36:26.091Z,5.77
2022-10-07T13:38:55.260Z,6.70
2022-10-07T13:41:30.378Z,4.67
2022-10-07T13:44:02.860Z,6.70
2022-10-07T13:46:32.438Z,4.67
2022-10-07T13:48:59.927Z,3.87
2022-10-07T13:51:29.406Z,4.77
2022-10-07T13:54:02.670Z,3.90
2022-10-07T13:56:37.731Z,3.53
2022-10-07T13:59:06.807Z,4.93
2022-10-07T14:01:37.990Z,3.00
2022-10-07T14:04:26.385Z,3.03
2022-10-07T14:07:12.822Z,5.53
2022-10-07T14:09:57.921Z,5.13
2022-10-07T14:12:31.341Z,1.87
2022-10-07T14:15:06.261Z,5.43
2022-10-07T14:17:38.611Z,8.13
2022-10-07T14:20:16.790Z,4.23
2022-10-07T14:22:48.761Z,3.90
2022-10-07T14:25:21.778Z,5.37
2022-10-07T14:27:57.628Z,4.80
2022-10-07T14:30:57.614Z,4.57
2022-10-07T14:34:07.650Z,3.60
2022-10-07T14:36:36.011Z,5.63
2022-10-07T14:39:23.615Z,2.97
2022-10-07T14:41:50.894Z,3.73
2022-10-07T14:44:18.167Z,3.30
2022-10-07T14:46:44.718Z,2.47
2022-10-07T14:49:11.258Z,5.23
2022-10-07T14:51:37.805Z,4.10
2022-10-07T14:54:07.275Z,3.33
2022-10-07T14:56:39.035Z,5.47
2022-10-07T14:59:13.655Z,3.73
2022-10-07T15:01:40.141Z,1.77
2022-10-07T15:04:06.870Z,4.17
2022-10-07T15:06:34.506Z,2.83
2022-10-07T15:09:00.948Z,4.43
2022-10-07T15:11:27.826Z,2.60
2022-10-07T15:13:54.297Z,2.90
2022-10-07T15:16:23.621Z,3.27
2022-10-07T15:18:52.909Z,5.83
2022-10-07T15:21:21.791Z,5.27
2022-10-07T15:23:54.944Z,3.77
2022-10-07T15:26:24.443Z,7.07
2022-10-07T15:28:56.292Z,3.13
2022-10-07T15:31:24.938Z,5.57
2022-10-07T15:33:51.631Z,7.13
2022-10-07T15:36:18.122Z,6.97
2022-10-07T15:38:44.611Z,6.20
2022-10-07T15:41:28.562Z,4.20
2022-10-07T15:43:59.802Z,4.63
2022-10-07T15:46:26.412Z,8.57
2022-10-07T15:48:56.505Z,6.37
2022-10-07T15:51:25.417Z,5.03
2022-10-07T15:53:55.217Z,3.53
2022-10-07T15:56:21.743Z,4.50
2022-10-07T15:58:48.416Z,5.20
2022-10-07T16:01:15.391Z,4.07
2022-10-07T16:03:44.673Z,7.20
2022-10-07T16:06:14.255Z,5.17
2022-10-07T16:08:40.815Z,6.33
2022-10-07T16:11:09.742Z,5.13
2022-10-07T16:13:37.689Z,5.60
2022-10-07T16:16:11.163Z,4.50
2022-10-07T16:18:40.874Z,5.20
2022-10-07T16:21:15.237Z,7.50
2022-10-07T16:23:48.038Z,6.90
2022-10-07T16:26:17.410Z,4.40
2022-10-07T16:29:08.134Z,5.37
2022-10-07T16:31:36.989Z,3.80
2022-10-07T16:34:04.186Z,4.77
2022-10-07T16:36:31.061Z,5.73
2022-10-07T16:39:03.282Z,4.73
2022-10-07T16:41:31.407Z,4.63
2022-10-07T16:44:01.871Z,5.43
2022-10-07T16:46:29.485Z,4.73
2022-10-07T16:48:55.999Z,12.63
2022-10-07T16:51:25.703Z,9.93
2022-10-07T16:53:57.369Z,10.37
2022-10-07T16:56:23.954Z,12.23
2022-10-07T16:58:57.786Z,20.77
2022-10-07T17:01:25.605Z,20.77
2022-10-07T17:03:53.989Z,19.83
2022-10-07T17:06:22.876Z,22.00
2022-10-07T17:08:49.783Z,22.87
2022-10-07T17:11:29.731Z,22.23
2022-10-07T17:14:01.687Z,21.30
2022-10-07T17:16:32.478Z,23.03
2022-10-07T17:18:59.098Z,40.57
2022-10-07T17:21:25.868Z,22.10
2022-10-07T17:23:52.766Z,14.00
2022-10-07T17:26:20.756Z,17.93
2022-10-07T17:28:49.816Z,15.03
2022-10-07T17:31:16.874Z,11.43
2022-10-07T17:33:44.139Z,9.90
2022-10-07T17:36:12.333Z,8.23
2022-10-07T17:38:40.690Z,9.20
2022-10-07T17:41:16.857Z,11.80
2022-10-07T17:43:43.894Z,8.47
2022-10-07T17:46:13.642Z,6.97
2022-10-07T17:48:45.312Z,9.53
2022-10-07T17:51:12.675Z,6.10
2022-10-07T17:53:42.385Z,7.33
2022-10-07T17:56:11.930Z,7.93
2022-10-07T17:58:40.117Z,7.93
2022-10-07T18:01:23.870Z,10.13
2022-10-07T18:03:53.093Z,8.20
2022-10-07T18:06:20.446Z,13.40
2022-10-07T18:08:47.920Z,9.87
2022-10-07T18:11:15.731Z,7.67
2022-10-07T18:14:00.913Z,11.93
2022-10-07T18:16:30.789Z,9.63
2022-10-07T18:18:57.619Z,7.83
2022-10-07T18:21:25.144Z,8.17
2022-10-07T18:23:52.614Z,7.63
2022-10-07T18:26:19.132Z,6.90
2022-10-07T18:28:46.756Z,8.97
2022-10-07T18:31:15.706Z,10.60
2022-10-07T18:33:43.183Z,8.43
2022-10-07T18:36:12.896Z,13.33
2022-10-07T18:38:41.554Z,8.57
2022-10-07T18:41:12.946Z,8.27
2022-10-07T18:43:40.169Z,7.70
2022-10-07T18:46:08.290Z,6.53
2022-10-07T18:48:37.222Z,8.60
2022-10-07T18:51:04.931Z,8.57
2022-10-07T18:53:34.926Z,10.87
2022-10-07T18:56:07.166Z,10.43
2022-10-07T18:58:36.108Z,11.47
2022-10-07T19:01:11.510Z,14.33
2022-10-07T19:03:38.630Z,11.73
2022-10-07T19:06:11.636Z,10.90
2022-10-07T19:08:38.771Z,9.67
2022-10-07T19:11:10.713Z,11.13
2022-10-07T19:13:53.382Z,12.83
2022-10-07T19:16:49.187Z,12.73
2022-10-07T19:19:23.966Z,10.63
2022-10-07T19:21:55.078Z,10.70
2022-10-07T19:24:45.095Z,11.10
2022-10-07T19:27:11.631Z,9.90
2022-10-07T19:29:38.216Z,7.67
2022-10-07T19:32:08.597Z,10.70
2022-10-07T19:34:35.897Z,7.57
2022-10-07T19:37:02.611Z,6.20
2022-10-07T19:39:29.126Z,10.77
2022-10-07T19:41:56.157Z,9.93
2022-10-07T19:44:22.736Z,9.73
2022-10-07T19:46:54.120Z,11.77
2022-10-07T19:49:20.753Z,7.60
2022-10-07T19:51:47.263Z,9.17
2022-10-07T19:54:13.930Z,7.60
2022-10-07T19:56:40.995Z,12.07
2022-10-07T19:59:09.883Z,9.50
2022-10-07T20:01:39.508Z,9.13
2022-10-07T20:04:21.209Z,9.40
2022-10-07T20:06:48.380Z,14.60
2022-10-07T20:09:17.494Z,10.43
2022-10-07T20:11:44.610Z,10.27
2022-10-07T20:14:11.262Z,10.83
2022-10-07T20:16:39.053Z,15.93
2022-10-07T20:19:15.406Z,10.43
2022-10-07T20:21:42.582Z,8.83
2022-10-07T20:24:14.437Z,9.27
2022-10-07T20:26:42.447Z,10.17
2022-10-07T20:29:10.382Z,12.47
2022-10-07T20:31:39.710Z,12.43
2022-10-07T20:34:08.267Z,11.63
2022-10-07T20:36:38.469Z,12.40
2022-10-07T20:39:33.572Z,11.70
2022-10-07T20:42:18.760Z,8.90
2022-10-07T20:44:48.263Z,14.33
2022-10-07T20:47:15.230Z,12.63
2022-10-07T20:49:42.319Z,13.03
2022-10-07T20:52:16.647Z,15.30
2022-10-07T20:54:44.371Z,11.83
2022-10-07T20:57:16.466Z,12.83
2022-10-07T20:59:43.954Z,13.53
2022-10-07T21:02:11.752Z,12.57
2022-10-07T21:04:38.453Z,12.87
2022-10-07T21:07:05.498Z,10.30
2022-10-07T21:09:36.300Z,10.70
2022-10-07T21:12:05.037Z,9.50
2022-10-07T21:14:31.524Z,8.97
2022-10-07T21:16:58.854Z,7.43
2022-10-07T21:19:25.829Z,8.03
2022-10-07T21:21:52.590Z,11.97
2022-10-07T21:24:19.229Z,11.47
2022-10-07T21:26:46.978Z,11.63
2022-10-07T21:29:14.630Z,11.83
2022-10-07T21:31:42.359Z,11.67
2022-10-07T21:34:09.933Z,11.23
2022-10-07T21:36:44.814Z,11.53
2022-10-07T21:39:13.055Z,11.17
2022-10-07T21:41:40.630Z,11.13
2022-10-07T21:44:10.990Z,9.67
2022-10-07T21:46:38.463Z,7.10
2022-10-07T21:49:07.723Z,9.10
2022-10-07T21:51:35.152Z,9.40
2022-10-07T21:54:02.603Z,9.97
2022-10-07T21:56:31.738Z,8.80
2022-10-07T21:59:01.260Z,7.77
2022-10-07T22:01:28.651Z,7.17
2022-10-07T22:03:57.491Z,9.50
2022-10-07T22:06:44.135Z,11.30
2022-10-07T22:09:12.230Z,9.27
2022-10-07T22:11:38.894Z,10.17
2022-10-07T22:14:09.961Z,13.83
2022-10-07T22:16:38.834Z,8.17
2022-10-07T22:19:05.936Z,8.17
2022-10-07T22:21:33.407Z,10.43
2022-10-07T22:24:02.718Z,7.67
2022-10-07T22:26:33.319Z,10.33
2022-10-07T22:29:00.255Z,8.37
2022-10-07T22:31:27.005Z,9.00
2022-10-07T22:33:56.334Z,9.30
2022-10-07T22:36:23.518Z,10.50
2022-10-07T22:38:50.906Z,10.53
2022-10-07T22:41:19.342Z,9.00
2022-10-07T22:43:47.296Z,9.33
2022-10-07T22:46:17.638Z,10.60
2022-10-07T22:48:48.463Z,11.57
2022-10-07T22:51:16.486Z,8.50
2022-10-07T22:53:47.831Z,7.97
2022-10-07T22:56:17.527Z,12.37
2022-10-07T22:58:49.494Z,10.80
2022-10-07T23:01:17.090Z,8.17
2022-10-07T23:03:44.603Z,9.47
2022-10-07T23:06:13.600Z,10.10
2022-10-07T23:08:40.550Z,7.83
2022-10-07T23:11:08.110Z,10.50
2022-10-07T23:13:36.402Z,13.43
2022-10-07T23:16:11.158Z,9.33
2022-10-07T23:18:38.656Z,8.37
2022-10-07T23:21:11.830Z,8.33
2022-10-07T23:23:39.688Z,8.97
2022-10-07T23:26:15.778Z,6.20
2022-10-07T23:28:42.396Z,10.07
2022-10-07T23:31:14.014Z,8.97
2022-10-07T23:33:41.071Z,10.30
2022-10-07T23:36:10.417Z,12.87
2022-10-07T23:38:38.980Z,8.03
2022-10-07T23:41:06.806Z,8.07
2022-10-07T23:43:33.506Z,9.20
2022-10-07T23:46:01.278Z,7.97
2022-10-07T23:48:28.094Z,8.80
2022-10-07T23:50:57.447Z,8.57
2022-10-07T23:53:23.924Z,8.67
2022-10-07T23:55:52.909Z,17.23
2022-10-07T23:58:22.391Z,25.50
